Flight Track Log - Related Links

Times and Time Zones

All times are in EDT time to prevent confusion due to time zone crossing. See the AAL992 flight status page for this flight to view local times or setup timezone preferences in your user account.

Time Position Orientation Groundspeed Altitude Reporting Facility
EDT Latitude Longitude Course Direction KTS MPH feet Rate Location/Type
Sun 09:10:00 PM -19.3432 -44.2199 325° Northwest  Level Estimated
Sun 09:11:00 PM -19.2463 -44.3034 322° Northwest  Level Estimated
Sun 09:12:00 PM -19.1424 -44.3769 326° Northwest  Level FlightAware Approximate
Sun 09:13:00 PM -19.0386 -44.4504 326° Northwest  Level FlightAware Approximate
Sun 09:14:00 PM -18.9415 -44.5336 324° Northwest  Level Estimated
Sun 09:15:00 PM -18.8445 -44.6167 323° Northwest  Level Estimated
Sun 09:16:00 PM -18.7402 -44.6894 327° Northwest  Level FlightAware Approximate
Sun 09:17:00 PM -18.6432 -44.7724 329° Northwest  Level Estimated
Sun 09:18:00 PM -18.5374 -44.8425 328° Northwest  Level FlightAware Approximate
Sun 09:19:00 PM -18.4403 -44.9253 322° Northwest  Level Estimated
Sun 09:20:00 PM -18.3370 -44.9994 326° Northwest  Level FlightAware Approximate
Sun 09:21:00 PM -18.2398 -45.0821 323° Northwest  Level Estimated
Sun 09:22:00 PM -18.1401 -45.1613 323° Northwest  Level FlightAware Approximate
Sun 09:23:00 PM -18.0403 -45.2404 323° Northwest  Level FlightAware Approximate
Sun 09:24:00 PM -17.9405 -45.3194 323° Northwest  Level FlightAware Approximate
Sun 09:25:00 PM -17.8407 -45.3983 323° Northwest  Level FlightAware Approximate
Sun 09:26:00 PM -17.7409 -45.4771 323° Northwest  Level FlightAware Approximate
Sun 09:27:00 PM -17.6410 -45.5559 323° Northwest  Level FlightAware Approximate
Sun 09:28:00 PM -17.5411 -45.6346 323° Northwest  Level FlightAware Approximate
Sun 09:29:00 PM -17.4412 -45.7132 323° Northwest  Level FlightAware Approximate
Sun 09:30:00 PM -17.3412 -45.7916 323° Northwest  Level FlightAware Approximate
Sun 09:31:00 PM -17.2412 -45.8700 323° Northwest  Level FlightAware Approximate
Sun 09:32:00 PM -17.1412 -45.9484 323° Northwest  Level FlightAware Approximate
Sun 09:33:00 PM -17.0404 -46.0271 323° Northwest  Level FlightAware Approximate
Sun 09:34:00 PM -16.9397 -46.1058 323° Northwest  Level FlightAware Approximate
Sun 09:35:00 PM -16.8389 -46.1843 323° Northwest  Level FlightAware Approximate
Sun 09:36:00 PM -16.7381 -46.2628 323° Northwest  Level FlightAware Approximate
Sun 09:37:00 PM -16.6373 -46.3412 323° Northwest  Level FlightAware Approximate
Sun 09:38:00 PM -16.5364 -46.4196 323° Northwest  Level FlightAware Approximate
Sun 09:39:00 PM -16.4356 -46.4978 323° Northwest  Level FlightAware Approximate
Sun 09:40:00 PM -16.3347 -46.5760 323° Northwest  Level FlightAware Approximate
Sun 09:41:00 PM -16.2337 -46.6540 323° Northwest  Level FlightAware Approximate
Sun 09:42:00 PM -16.1327 -46.7321 323° Northwest  Level FlightAware Approximate
Sun 09:43:00 PM -16.0317 -46.8100 323° Northwest  Level FlightAware Approximate
Sun 09:44:00 PM -15.9307 -46.8878 323° Northwest  Level FlightAware Approximate
Sun 09:45:00 PM -15.8296 -46.9656 323° Northwest  Level FlightAware Approximate
Sun 09:46:00 PM -15.7286 -47.0433 324° Northwest  Level FlightAware Approximate
Sun 09:47:00 PM -15.6275 -47.1209 324° Northwest  Level FlightAware Approximate
Sun 09:48:00 PM -15.5263 -47.1984 324° Northwest  Level FlightAware Approximate
Sun 09:49:00 PM -15.4251 -47.2759 324° Northwest  Level FlightAware Approximate
Sun 09:50:00 PM -15.3240 -47.3532 324° Northwest  Level FlightAware Approximate
Sun 09:51:00 PM -15.2227 -47.4306 324° Northwest  Level FlightAware Approximate
Sun 09:52:00 PM -15.1215 -47.5078 324° Northwest  Level FlightAware Approximate
Sun 09:53:00 PM -15.0202 -47.5849 324° Northwest  Level FlightAware Approximate
Sun 09:54:00 PM -14.9189 -47.6620 324° Northwest  Level FlightAware Approximate
Sun 09:55:00 PM -14.8176 -47.7391 324° Northwest  Level FlightAware Approximate
Sun 09:56:00 PM -14.7163 -47.8160 324° Northwest  Level FlightAware Approximate
Sun 09:57:00 PM -14.6149 -47.8929 324° Northwest  Level FlightAware Approximate
Sun 09:58:00 PM -14.5135 -47.9697 324° Northwest  Level FlightAware Approximate
Sun 09:59:00 PM -14.4121 -48.0464 324° Northwest  Level FlightAware Approximate
Sun 10:00:00 PM -14.3106 -48.1231 324° Northwest  Level FlightAware Approximate
Sun 10:01:00 PM -14.2091 -48.1996 324° Northwest  Level FlightAware Approximate
Sun 10:02:00 PM -14.1076 -48.2762 324° Northwest  Level FlightAware Approximate
Sun 10:03:00 PM -14.0061 -48.3526 324° Northwest  Level FlightAware Approximate
Sun 10:04:00 PM -13.9046 -48.4290 324° Northwest  Level FlightAware Approximate
Sun 10:05:00 PM -13.8030 -48.5053 324° Northwest  Level FlightAware Approximate
Sun 10:06:00 PM -13.7014 -48.5816 324° Northwest  Level FlightAware Approximate
Sun 10:07:00 PM -13.5998 -48.6578 324° Northwest  Level FlightAware Approximate
Sun 10:08:00 PM -13.4981 -48.7339 324° Northwest  Level FlightAware Approximate
Sun 10:09:00 PM -13.3965 -48.8099 324° Northwest  Level FlightAware Approximate
Sun 10:10:00 PM -13.2948 -48.8859 324° Northwest  Level FlightAware Approximate
Sun 10:11:00 PM -13.1931 -48.9619 324° Northwest  Level FlightAware Approximate
Sun 10:12:00 PM -13.0914 -49.0377 324° Northwest  Level FlightAware Approximate
Sun 10:13:00 PM -12.9896 -49.1135 324° Northwest  Level FlightAware Approximate
Sun 10:14:00 PM -12.8878 -49.1893 324° Northwest  Level FlightAware Approximate
Sun 10:15:00 PM -12.7860 -49.2649 324° Northwest  Level FlightAware Approximate
Sun 10:16:00 PM -12.6842 -49.3406 324° Northwest  Level FlightAware Approximate
Sun 10:17:00 PM -12.5824 -49.4161 324° Northwest  Level FlightAware Approximate
Sun 10:18:00 PM -12.4805 -49.4916 324° Northwest  Level FlightAware Approximate
Sun 10:19:00 PM -12.3786 -49.5671 324° Northwest  Level FlightAware Approximate
Sun 10:20:00 PM -12.2767 -49.6424 324° Northwest  Level FlightAware Approximate
Sun 10:21:00 PM -12.1748 -49.7178 324° Northwest  Level FlightAware Approximate
Sun 10:22:00 PM -12.0729 -49.7930 324° Northwest  Level FlightAware Approximate
Sun 10:23:00 PM -11.9709 -49.8682 324° Northwest  Level FlightAware Approximate
Sun 10:24:00 PM -11.8689 -49.9434 324° Northwest  Level FlightAware Approximate
Sun 10:25:00 PM -11.7669 -50.0185 324° Northwest  Level FlightAware Approximate
Sun 10:26:00 PM -11.6649 -50.0935 324° Northwest  Level FlightAware Approximate
Sun 10:27:00 PM -11.5629 -50.1685 324° Northwest  Level FlightAware Approximate
Sun 10:28:00 PM -11.4608 -50.2434 324° Northwest  Level FlightAware Approximate
Sun 10:29:00 PM -11.3587 -50.3183 324° Northwest  Level FlightAware Approximate
Sun 10:30:00 PM -11.2566 -50.3931 324° Northwest  Level FlightAware Approximate
Sun 10:31:00 PM -11.1545 -50.4679 324° Northwest  Level FlightAware Approximate
Sun 10:32:00 PM -11.0524 -50.5426 324° Northwest  Level FlightAware Approximate
Sun 10:33:00 PM -10.9502 -50.6172 324° Northwest  Level FlightAware Approximate
Sun 10:34:00 PM -10.8481 -50.6919 324° Northwest  Level FlightAware Approximate
Sun 10:35:00 PM -10.7459 -50.7664 324° Northwest  Level FlightAware Approximate
Sun 10:36:00 PM -10.6437 -50.8409 324° Northwest  Level FlightAware Approximate
Sun 10:37:00 PM -10.5414 -50.9154 324° Northwest  Level FlightAware Approximate
Sun 10:38:00 PM -10.4392 -50.9898 324° Northwest  Level FlightAware Approximate
Sun 10:39:00 PM -10.3369 -51.0642 324° Northwest  Level FlightAware Approximate
Sun 10:40:00 PM -10.2346 -51.1385 324° Northwest  Level FlightAware Approximate
Sun 10:41:00 PM -10.1324 -51.2127 324° Northwest  Level FlightAware Approximate
Sun 10:42:00 PM -10.0301 -51.2869 324° Northwest  Level FlightAware Approximate
Sun 10:43:00 PM -9.9277 -51.3611 324° Northwest  Level FlightAware Approximate
Sun 10:44:00 PM -9.8254 -51.4352 324° Northwest  Level FlightAware Approximate
Sun 10:45:00 PM -9.7230 -51.5093 324° Northwest  Level FlightAware Approximate
Sun 10:46:00 PM -9.6206 -51.5834 325° Northwest  Level FlightAware Approximate
Sun 10:47:00 PM -9.5183 -51.6573 325° Northwest  Level FlightAware Approximate
Sun 10:48:00 PM -9.4158 -51.7313 325° Northwest  Level FlightAware Approximate
Sun 10:49:00 PM -9.3134 -51.8052 325° Northwest  Level FlightAware Approximate
Sun 10:50:00 PM -9.2110 -51.8790 325° Northwest  Level FlightAware Approximate
Sun 10:51:00 PM -9.1085 -51.9529 325° Northwest  Level FlightAware Approximate
Sun 10:52:00 PM -9.0061 -52.0266 325° Northwest  Level FlightAware Approximate
Sun 10:53:00 PM -8.9036 -52.1003 325° Northwest  Level FlightAware Approximate
Sun 10:54:00 PM -8.8011 -52.1740 325° Northwest  Level FlightAware Approximate
Sun 10:55:00 PM -8.6986 -52.2477 325° Northwest  Level FlightAware Approximate
Sun 10:56:00 PM -8.5960 -52.3213 325° Northwest  Level FlightAware Approximate
Sun 10:57:00 PM -8.4935 -52.3949 325° Northwest  Level FlightAware Approximate
Sun 10:58:00 PM -8.3910 -52.4684 325° Northwest  Level FlightAware Approximate
Sun 10:59:00 PM -8.2884 -52.5419 325° Northwest  Level FlightAware Approximate
Sun 11:00:00 PM -8.1858 -52.6153 325° Northwest  Level FlightAware Approximate
Sun 11:01:00 PM -8.0832 -52.6888 325° Northwest  Level FlightAware Approximate
Sun 11:02:00 PM -7.9806 -52.7621 325° Northwest  Level FlightAware Approximate
Sun 11:03:00 PM -7.8780 -52.8355 325° Northwest  Level FlightAware Approximate
Sun 11:04:00 PM -7.7754 -52.9088 325° Northwest  Level FlightAware Approximate
Sun 11:05:00 PM -7.6727 -52.9820 325° Northwest  Level FlightAware Approximate
Sun 11:06:00 PM -7.5700 -53.0553 325° Northwest  Level FlightAware Approximate
Sun 11:07:00 PM -7.4674 -53.1285 325° Northwest  Level FlightAware Approximate
Sun 11:08:00 PM -7.3647 -53.2016 325° Northwest  Level FlightAware Approximate
Sun 11:09:00 PM -7.2620 -53.2748 325° Northwest  Level FlightAware Approximate
Sun 11:10:00 PM -7.1593 -53.3479 325° Northwest  Level FlightAware Approximate
Sun 11:11:00 PM -7.0566 -53.4209 325° Northwest  Level FlightAware Approximate
Sun 11:12:00 PM -6.9538 -53.4939 325° Northwest  Level FlightAware Approximate
Sun 11:13:00 PM -6.8511 -53.5669 325° Northwest  Level FlightAware Approximate
Sun 11:14:00 PM -6.7484 -53.6399 325° Northwest  Level FlightAware Approximate
Sun 11:15:00 PM -6.6456 -53.7128 325° Northwest  Level FlightAware Approximate
Sun 11:16:00 PM -6.5428 -53.7857 325° Northwest  Level FlightAware Approximate
Sun 11:17:00 PM -6.4400 -53.8586 325° Northwest  Level FlightAware Approximate
Sun 11:18:00 PM -6.3373 -53.9314 325° Northwest  Level FlightAware Approximate
Sun 11:19:00 PM -6.2344 -54.0043 325° Northwest  Level FlightAware Approximate
Sun 11:20:00 PM -6.1316 -54.0771 325° Northwest  Level FlightAware Approximate
Sun 11:21:00 PM -6.0288 -54.1498 325° Northwest  Level FlightAware Approximate
Sun 11:22:00 PM -5.9260 -54.2225 325° Northwest  Level FlightAware Approximate
Sun 11:23:00 PM -5.8232 -54.2952 325° Northwest  Level FlightAware Approximate
Sun 11:24:00 PM -5.7203 -54.3679 325° Northwest  Level FlightAware Approximate
Sun 11:25:00 PM -5.6174 -54.4406 325° Northwest  Level FlightAware Approximate
Sun 11:26:00 PM -5.5146 -54.5132 325° Northwest  Level FlightAware Approximate
Sun 11:27:00 PM -5.4117 -54.5858 325° Northwest  Level FlightAware Approximate
Sun 11:28:00 PM -5.3088 -54.6584 325° Northwest  Level FlightAware Approximate
Sun 11:29:00 PM -5.2059 -54.7309 325° Northwest  Level FlightAware Approximate
Sun 11:30:00 PM -5.1030 -54.8035 325° Northwest  Level FlightAware Approximate
Sun 11:31:00 PM -5.0001 -54.8760 325° Northwest  Level FlightAware Approximate
Sun 11:32:00 PM -4.8972 -54.9484 325° Northwest  Level FlightAware Approximate
Sun 11:33:00 PM -4.7942 -55.0209 325° Northwest  Level FlightAware Approximate
Sun 11:34:00 PM -4.6913 -55.0933 325° Northwest  Level FlightAware Approximate
Sun 11:35:00 PM -4.5884 -55.1658 325° Northwest  Level FlightAware Approximate
Sun 11:36:00 PM -4.4854 -55.2382 325° Northwest  Level FlightAware Approximate
Sun 11:37:00 PM -4.3825 -55.3106 325° Northwest  Level FlightAware Approximate
Sun 11:38:00 PM -4.2795 -55.3829 325° Northwest  Level FlightAware Approximate
Sun 11:39:00 PM -4.1765 -55.4552 325° Northwest  Level FlightAware Approximate
Sun 11:40:00 PM -4.0736 -55.5276 325° Northwest  Level FlightAware Approximate
Sun 11:41:00 PM -3.9706 -55.5999 325° Northwest  Level FlightAware Approximate
Sun 11:42:00 PM -3.8676 -55.6721 325° Northwest  Level FlightAware Approximate
Sun 11:43:00 PM -3.7646 -55.7444 325° Northwest  Level FlightAware Approximate
Sun 11:44:00 PM -3.6616 -55.8167 325° Northwest  Level FlightAware Approximate
Sun 11:45:00 PM -3.5586 -55.8889 325° Northwest  Level FlightAware Approximate
Sun 11:46:00 PM -3.4556 -55.9611 325° Northwest  Level FlightAware Approximate
Sun 11:47:00 PM -3.3525 -56.0333 325° Northwest  Level FlightAware Approximate
Sun 11:48:00 PM -3.2495 -56.1055 325° Northwest  Level FlightAware Approximate
Sun 11:49:00 PM -3.1465 -56.1777 325° Northwest  Level FlightAware Approximate
Sun 11:50:00 PM -3.0435 -56.2498 325° Northwest  Level FlightAware Approximate
Sun 11:51:00 PM -2.9404 -56.3219 325° Northwest  Level FlightAware Approximate
Sun 11:52:00 PM -2.8374 -56.3941 325° Northwest  Level FlightAware Approximate
Sun 11:53:00 PM -2.7343 -56.4662 325° Northwest  Level FlightAware Approximate
Sun 11:54:00 PM -2.6313 -56.5383 325° Northwest  Level FlightAware Approximate
Sun 11:55:00 PM -2.5282 -56.6104 325° Northwest  Level FlightAware Approximate
Sun 11:56:00 PM -2.4252 -56.6824 325° Northwest  Level FlightAware Approximate
Sun 11:57:00 PM -2.3221 -56.7545 325° Northwest  Level FlightAware Approximate
Sun 11:58:00 PM -2.2190 -56.8266 325° Northwest  Level FlightAware Approximate
Sun 11:59:00 PM -2.1160 -56.8986 325° Northwest  Level FlightAware Approximate
Mon 12:00:00 AM -2.0129 -56.9707 325° Northwest  Level FlightAware Approximate
Mon 12:01:00 AM -1.9098 -57.0427 325° Northwest  Level FlightAware Approximate
Mon 12:02:00 AM -1.8067 -57.1147 325° Northwest  Level FlightAware Approximate
Mon 12:03:00 AM -1.7036 -57.1867 325° Northwest  Level FlightAware Approximate
Mon 12:04:00 AM -1.6006 -57.2587 325° Northwest  Level FlightAware Approximate
Mon 12:05:00 AM -1.4975 -57.3307 325° Northwest  Level FlightAware Approximate
Mon 12:06:00 AM -1.3944 -57.4027 325° Northwest  Level FlightAware Approximate
Mon 12:07:00 AM -1.2913 -57.4747 325° Northwest  Level FlightAware Approximate
Mon 12:08:00 AM -1.1882 -57.5467 325° Northwest  Level FlightAware Approximate
Mon 12:09:00 AM -1.0851 -57.6186 325° Northwest  Level FlightAware Approximate
Mon 12:10:00 AM -0.9820 -57.6906 325° Northwest  Level FlightAware Approximate
Mon 12:11:00 AM -0.8789 -57.7626 325° Northwest  Level FlightAware Approximate
Mon 12:12:00 AM -0.7758 -57.8345 325° Northwest  Level FlightAware Approximate
Mon 12:13:00 AM -0.6727 -57.9065 325° Northwest  Level FlightAware Approximate
Mon 12:14:00 AM -0.5696 -57.9784 325° Northwest  Level FlightAware Approximate
Mon 12:15:00 AM -0.4665 -58.0504 325° Northwest  Level FlightAware Approximate
Mon 12:16:00 AM -0.3634 -58.1223 325° Northwest  Level FlightAware Approximate
Mon 12:17:00 AM -0.2602 -58.1943 325° Northwest  Level FlightAware Approximate
Mon 12:18:00 AM -0.1571 -58.2662 325° Northwest  Level FlightAware Approximate
Mon 12:19:00 AM -0.0540 -58.3382 325° Northwest  Level FlightAware Approximate
Mon 12:20:00 AM 0.0491 -58.4101 325° Northwest  Level FlightAware Approximate
Mon 12:21:00 AM 0.1522 -58.4820 325° Northwest  Level FlightAware Approximate
Mon 12:22:00 AM 0.2553 -58.5540 325° Northwest  Level FlightAware Approximate
Mon 12:23:00 AM 0.3584 -58.6259 325° Northwest  Level FlightAware Approximate
Mon 12:24:00 AM 0.4615 -58.6979 325° Northwest  Level FlightAware Approximate
Mon 12:25:00 AM 0.5646 -58.7698 325° Northwest  Level FlightAware Approximate
Mon 12:26:00 AM 0.6678 -58.8418 325° Northwest  Level FlightAware Approximate
Mon 12:27:00 AM 0.7709 -58.9137 325° Northwest  Level FlightAware Approximate
Mon 12:28:00 AM 0.8740 -58.9857 325° Northwest  Level FlightAware Approximate
Mon 12:29:00 AM 0.9771 -59.0576 325° Northwest  Level FlightAware Approximate
Mon 12:30:00 AM 1.0802 -59.1296 325° Northwest  Level FlightAware Approximate
Mon 12:31:00 AM 1.1832 -59.2016 325° Northwest  Level FlightAware Approximate
Mon 12:32:00 AM 1.2864 -59.2735 325° Northwest  Level FlightAware Approximate
Mon 12:33:00 AM 1.3894 -59.3455 325° Northwest  Level FlightAware Approximate
Mon 12:34:00 AM 1.4925 -59.4175 325° Northwest  Level FlightAware Approximate
Mon 12:35:00 AM 1.5956 -59.4895 325° Northwest  Level FlightAware Approximate
Mon 12:36:00 AM 1.6987 -59.5615 325° Northwest  Level FlightAware Approximate
Mon 12:37:00 AM 1.8018 -59.6335 325° Northwest  Level FlightAware Approximate
Mon 12:38:00 AM 1.9049 -59.7055 325° Northwest  Level FlightAware Approximate
Mon 12:39:00 AM 2.0080 -59.7776 325° Northwest  Level FlightAware Approximate
Mon 12:40:00 AM 2.1110 -59.8496 325° Northwest  Level FlightAware Approximate
Mon 12:41:00 AM 2.2141 -59.9216 325° Northwest  Level FlightAware Approximate
Mon 12:42:00 AM 2.3172 -59.9937 325° Northwest  Level FlightAware Approximate
Mon 12:43:00 AM 2.4202 -60.0658 325° Northwest  Level FlightAware Approximate
Mon 12:44:00 AM 2.5233 -60.1379 325° Northwest  Level FlightAware Approximate
Mon 12:45:00 AM 2.6263 -60.2099 325° Northwest  Level FlightAware Approximate
Mon 12:46:00 AM 2.7294 -60.2820 325° Northwest  Level FlightAware Approximate
Mon 12:47:00 AM 2.8324 -60.3541 325° Northwest  Level FlightAware Approximate
Mon 12:48:00 AM 2.9355 -60.4263 325° Northwest  Level FlightAware Approximate
Mon 12:49:00 AM 3.0385 -60.4984 325° Northwest  Level FlightAware Approximate
Mon 12:50:00 AM 3.1416 -60.5706 325° Northwest  Level FlightAware Approximate
Mon 12:51:00 AM 3.2444 -60.6426 325° Northwest  Level FlightAware Approximate
Mon 12:52:00 AM 3.3472 -60.7146 325° Northwest  Level FlightAware Approximate
Mon 12:53:00 AM 3.4500 -60.7866 325° Northwest  Level FlightAware Approximate
Mon 12:54:00 AM 3.5528 -60.8587 325° Northwest  Level FlightAware Approximate
Mon 12:55:00 AM 3.6556 -60.9308 325° Northwest  Level FlightAware Approximate
Mon 12:56:00 AM 3.7583 -61.0029 325° Northwest  Level FlightAware Approximate
Mon 12:57:00 AM 3.8611 -61.0750 325° Northwest  Level FlightAware Approximate
Mon 12:58:00 AM 3.9639 -61.1471 325° Northwest  Level FlightAware Approximate
Mon 12:59:00 AM 4.0666 -61.2192 325° Northwest  Level FlightAware Approximate
Mon 01:00:00 AM 4.1694 -61.2914 325° Northwest  Level FlightAware Approximate
Mon 01:01:00 AM 4.2722 -61.3636 325° Northwest  Level FlightAware Approximate
Mon 01:02:00 AM 4.3749 -61.4358 325° Northwest  Level FlightAware Approximate
Mon 01:03:00 AM 4.4776 -61.5080 325° Northwest  Level FlightAware Approximate
Mon 01:04:00 AM 4.5804 -61.5802 325° Northwest  Level FlightAware Approximate
Mon 01:05:00 AM 4.6831 -61.6525 325° Northwest  Level FlightAware Approximate
Mon 01:06:00 AM 4.7858 -61.7248 325° Northwest  Level FlightAware Approximate
Mon 01:07:00 AM 4.8885 -61.7971 325° Northwest  Level FlightAware Approximate
Mon 01:08:00 AM 4.9912 -61.8694 325° Northwest  Level FlightAware Approximate
Mon 01:09:00 AM 5.0939 -61.9417 325° Northwest  Level FlightAware Approximate
Mon 01:10:00 AM 5.1966 -62.0141 325° Northwest  Level FlightAware Approximate
Mon 01:11:00 AM 5.2992 -62.0865 325° Northwest  Level FlightAware Approximate
Mon 01:12:00 AM 5.4019 -62.1589 325° Northwest  Level FlightAware Approximate
Mon 01:13:00 AM 5.5046 -62.2314 325° Northwest  Level FlightAware Approximate
Mon 01:14:00 AM 5.6072 -62.3038 325° Northwest  Level FlightAware Approximate
Mon 01:15:00 AM 5.7099 -62.3763 325° Northwest  Level FlightAware Approximate
Mon 01:16:00 AM 5.8125 -62.4488 325° Northwest  Level FlightAware Approximate
Mon 01:17:00 AM 5.9151 -62.5214 325° Northwest  Level FlightAware Approximate
Mon 01:18:00 AM 6.0177 -62.5939 325° Northwest  Level FlightAware Approximate
Mon 01:19:00 AM 6.1203 -62.6665 325° Northwest  Level FlightAware Approximate
Mon 01:20:00 AM 6.2229 -62.7392 325° Northwest  Level FlightAware Approximate
Mon 01:21:00 AM 6.3255 -62.8118 325° Northwest  Level FlightAware Approximate
Mon 01:22:00 AM 6.4281 -62.8845 325° Northwest  Level FlightAware Approximate
Mon 01:23:00 AM 6.5306 -62.9572 325° Northwest  Level FlightAware Approximate
Mon 01:24:00 AM 6.6332 -63.0300 325° Northwest  Level FlightAware Approximate
Mon 01:25:00 AM 6.7357 -63.1027 325° Northwest  Level FlightAware Approximate
Mon 01:26:00 AM 6.8382 -63.1755 325° Northwest  Level FlightAware Approximate
Mon 01:27:00 AM 6.9408 -63.2484 325° Northwest  Level FlightAware Approximate
Mon 01:28:00 AM 7.0433 -63.3213 325° Northwest  Level FlightAware Approximate
Mon 01:29:00 AM 7.1458 -63.3941 325° Northwest  Level FlightAware Approximate
Mon 01:30:00 AM 7.2483 -63.4671 325° Northwest  Level FlightAware Approximate
Mon 01:31:00 AM 7.3507 -63.5401 325° Northwest  Level FlightAware Approximate
Mon 01:32:00 AM 7.4532 -63.6130 325° Northwest  Level FlightAware Approximate
Mon 01:33:00 AM 7.5556 -63.6861 325° Northwest  Level FlightAware Approximate
Mon 01:34:00 AM 7.6581 -63.7592 325° Northwest  Level FlightAware Approximate
Mon 01:35:00 AM 7.7605 -63.8322 325° Northwest  Level FlightAware Approximate
Mon 01:36:00 AM 7.8629 -63.9054 325° Northwest  Level FlightAware Approximate
Mon 01:37:00 AM 7.9653 -63.9786 325° Northwest  Level FlightAware Approximate
Mon 01:38:00 AM 8.0677 -64.0518 325° Northwest  Level FlightAware Approximate
Mon 01:39:00 AM 8.1701 -64.1250 325° Northwest  Level FlightAware Approximate
Mon 01:40:00 AM 8.2725 -64.1983 325° Northwest  Level FlightAware Approximate
Mon 01:41:00 AM 8.3748 -64.2716 325° Northwest  Level FlightAware Approximate
Mon 01:42:00 AM 8.4771 -64.3450 325° Northwest  Level FlightAware Approximate
Mon 01:43:00 AM 8.5795 -64.4184 325° Northwest  Level FlightAware Approximate
Mon 01:44:00 AM 8.6818 -64.4918 325° Northwest  Level FlightAware Approximate
Mon 01:45:00 AM 8.7841 -64.5653 325° Northwest  Level FlightAware Approximate
Mon 01:46:00 AM 8.8863 -64.6388 325° Northwest  Level FlightAware Approximate
Mon 01:47:00 AM 8.9886 -64.7124 325° Northwest  Level FlightAware Approximate
Mon 01:48:00 AM 9.0908 -64.7860 325° Northwest  Level FlightAware Approximate
Mon 01:49:00 AM 9.1931 -64.8596 325° Northwest  Level FlightAware Approximate
Mon 01:50:00 AM 9.2953 -64.9333 325° Northwest  Level FlightAware Approximate
Mon 01:51:00 AM 9.3975 -65.0071 325° Northwest  Level FlightAware Approximate
Mon 01:52:00 AM 9.4997 -65.0808 325° Northwest  Level FlightAware Approximate
Mon 01:53:00 AM 9.6019 -65.1547 325° Northwest  Level FlightAware Approximate
Mon 01:54:00 AM 9.7040 -65.2285 325° Northwest  Level FlightAware Approximate
Mon 01:55:00 AM 9.8062 -65.3024 325° Northwest  Level FlightAware Approximate
Mon 01:56:00 AM 9.9083 -65.3764 325° Northwest  Level FlightAware Approximate
Mon 01:57:00 AM 10.0104 -65.4504 324° Northwest  Level FlightAware Approximate
Mon 01:58:00 AM 10.1125 -65.5244 324° Northwest  Level FlightAware Approximate
Mon 01:59:00 AM 10.2146 -65.5985 324° Northwest  Level FlightAware Approximate
Mon 02:00:00 AM 10.3167 -65.6727 324° Northwest  Level FlightAware Approximate
Mon 02:01:00 AM 10.4187 -65.7469 324° Northwest  Level FlightAware Approximate
Mon 02:02:00 AM 10.5207 -65.8211 324° Northwest  Level FlightAware Approximate
Mon 02:03:00 AM 10.6225 -65.8952 324° Northwest  Level FlightAware Approximate
Mon 02:04:00 AM 10.7243 -65.9694 324° Northwest  Level FlightAware Approximate
Mon 02:05:00 AM 10.8260 -66.0436 324° Northwest  Level FlightAware Approximate
Mon 02:06:00 AM 10.9278 -66.1179 324° Northwest  Level FlightAware Approximate
Mon 02:07:00 AM 11.0297 -66.1924 324° Northwest  Level FlightAware Approximate
Mon 02:08:00 AM 11.1316 -66.2670 324° Northwest  Level FlightAware Approximate
Mon 02:09:00 AM 11.2335 -66.3415 324° Northwest  Level FlightAware Approximate
Mon 02:10:00 AM 11.3354 -66.4162 324° Northwest  Level FlightAware Approximate
Mon 02:11:00 AM 11.4373 -66.4909 324° Northwest  Level FlightAware Approximate
Mon 02:12:00 AM 11.5391 -66.5656 324° Northwest  Level FlightAware Approximate
Mon 02:13:00 AM 11.6410 -66.6404 324° Northwest  Level FlightAware Approximate
Mon 02:14:00 AM 11.7428 -66.7153 324° Northwest  Level FlightAware Approximate
Mon 02:15:00 AM 11.8443 -66.7901 324° Northwest  Level FlightAware Approximate
Mon 02:16:00 AM 11.9459 -66.8649 324° Northwest  Level FlightAware Approximate
Mon 02:17:00 AM 12.0474 -66.9398 324° Northwest  Level FlightAware Approximate
Mon 02:18:00 AM 12.1489 -67.0147 324° Northwest  Level FlightAware Approximate
Mon 02:19:00 AM 12.2504 -67.0897 324° Northwest  Level FlightAware Approximate
Mon 02:20:00 AM 12.3519 -67.1647 324° Northwest  Level FlightAware Approximate
Mon 02:21:00 AM 12.4534 -67.2398 324° Northwest  Level FlightAware Approximate
Mon 02:22:00 AM 12.5548 -67.3149 324° Northwest  Level FlightAware Approximate
Mon 02:23:00 AM 12.6562 -67.3902 324° Northwest  Level FlightAware Approximate
Mon 02:24:00 AM 12.7576 -67.4654 324° Northwest  Level FlightAware Approximate
Mon 02:25:00 AM 12.8522 -67.5496 324° Northwest  Level Estimated
Mon 02:26:00 AM 12.9537 -67.6246 324° Northwest  Level FlightAware Approximate
Mon 02:27:00 AM 13.0552 -67.6998 324° Northwest  Level FlightAware Approximate
Mon 02:28:00 AM 13.1567 -67.7750 324° Northwest  Level FlightAware Approximate
Mon 02:29:00 AM 13.2582 -67.8503 324° Northwest  Level FlightAware Approximate
Mon 02:30:00 AM 13.3597 -67.9257 324° Northwest  Level FlightAware Approximate
Mon 02:31:00 AM 13.4612 -68.0011 324° Northwest  Level FlightAware Approximate
Mon 02:32:00 AM 13.5626 -68.0765 324° Northwest  Level FlightAware Approximate
Mon 02:33:00 AM 13.6640 -68.1521 324° Northwest  Level FlightAware Approximate
Mon 02:34:00 AM 13.7653 -68.2277 324° Northwest  Level FlightAware Approximate
Mon 02:35:00 AM 13.8667 -68.3034 324° Northwest  Level FlightAware Approximate
Mon 02:36:00 AM 13.9680 -68.3791 324° Northwest  Level FlightAware Approximate
Mon 02:37:00 AM 14.0693 -68.4549 324° Northwest  Level FlightAware Approximate
Mon 02:38:00 AM 14.1706 -68.5308 324° Northwest  Level FlightAware Approximate
Mon 02:39:00 AM 14.2719 -68.6067 324° Northwest  Level FlightAware Approximate
Mon 02:40:00 AM 14.3731 -68.6827 324° Northwest  Level FlightAware Approximate
Mon 02:41:00 AM 14.4743 -68.7588 324° Northwest  Level FlightAware Approximate
Mon 02:42:00 AM 14.5755 -68.8349 324° Northwest  Level FlightAware Approximate
Mon 02:43:00 AM 14.6767 -68.9111 324° Northwest  Level FlightAware Approximate
Mon 02:44:00 AM 14.7778 -68.9874 324° Northwest  Level FlightAware Approximate
Mon 02:45:00 AM 14.8789 -69.0638 324° Northwest  Level FlightAware Approximate
Mon 02:46:00 AM 14.9800 -69.1402 324° Northwest  Level FlightAware Approximate
Mon 02:47:00 AM 15.0810 -69.2167 324° Northwest  Level FlightAware Approximate
Mon 02:48:00 AM 15.1821 -69.2933 324° Northwest  Level FlightAware Approximate
Mon 02:49:00 AM 15.2831 -69.3699 324° Northwest  Level FlightAware Approximate
Mon 02:50:00 AM 15.3841 -69.4466 324° Northwest  Level FlightAware Approximate
Mon 02:51:00 AM 15.4850 -69.5234 324° Northwest  Level FlightAware Approximate
Mon 02:52:00 AM 15.5859 -69.6003 324° Northwest  Level FlightAware Approximate
Mon 02:53:00 AM 15.6868 -69.6772 324° Northwest  Level FlightAware Approximate
Mon 02:54:00 AM 15.7875 -69.7541 324° Northwest  Level FlightAware Approximate
Mon 02:55:00 AM 15.8792 -69.8423 324° Northwest  Level Estimated
Mon 02:56:00 AM 15.9800 -69.9190 324° Northwest  Level FlightAware Approximate
Mon 02:57:00 AM 16.0808 -69.9958 324° Northwest  Level FlightAware Approximate
Mon 02:58:00 AM 16.1815 -70.0727 324° Northwest  Level FlightAware Approximate
Mon 02:59:00 AM 16.2823 -70.1496 324° Northwest  Level FlightAware Approximate
Mon 03:00:00 AM 16.3830 -70.2266 324° Northwest  Level FlightAware Approximate
Mon 03:01:00 AM 16.4836 -70.3037 324° Northwest  Level FlightAware Approximate
Mon 03:02:00 AM 16.5843 -70.3809 324° Northwest  Level FlightAware Approximate
Mon 03:03:00 AM 16.6849 -70.4582 324° Northwest  Level FlightAware Approximate
Mon 03:04:00 AM 16.7855 -70.5355 324° Northwest  Level FlightAware Approximate
Mon 03:05:00 AM 16.8861 -70.6129 324° Northwest  Level FlightAware Approximate
Mon 03:06:00 AM 16.9866 -70.6905 324° Northwest  Level FlightAware Approximate
Mon 03:07:00 AM 17.0871 -70.7680 324° Northwest  Level FlightAware Approximate
Mon 03:08:00 AM 17.1876 -70.8457 324° Northwest  Level FlightAware Approximate
Mon 03:09:00 AM 17.2880 -70.9235 324° Northwest  Level FlightAware Approximate
Mon 03:10:00 AM 17.3882 -71.0012 324° Northwest  Level FlightAware Approximate
Mon 03:11:00 AM 17.4884 -71.0789 323° Northwest  Level FlightAware Approximate
Mon 03:12:00 AM 17.5885 -71.1568 323° Northwest  Level FlightAware Approximate
Mon 03:13:00 AM 17.6886 -71.2347 323° Northwest  Level FlightAware Approximate
Mon 03:14:00 AM 17.7887 -71.3127 323° Northwest  Level FlightAware Approximate
Mon 03:15:00 AM 17.8888 -71.3908 323° Northwest  Level FlightAware Approximate
Mon 03:15:41 AM 18.0778 -71.5322 328° Northwest 469 540 38,000  Level Miami Center
Mon 03:16:00 AM 17.9888 -71.4690 323° Northwest  Level FlightAware Approximate
Mon 03:16:42 AM 18.1653 -71.6008 323° Northwest 436 502 38,000  Level Miami Center
Mon 03:17:00 AM 18.0888 -71.5473 323° Northwest  Level FlightAware Approximate
Mon 03:17:40 AM 18.2597 -71.6825 321° Northwest 421 484 38,000  Level Miami Center
Mon 03:18:00 AM 18.1770 -71.6399 325° Northwest  Level Estimated
Mon 03:18:42 AM 18.3492 -71.7489 325° Northwest 415 478 38,000  Level Miami Center
Mon 03:19:00 AM 18.2824 -71.7101 328° Northwest  Level FlightAware Approximate
Mon 03:19:40 AM 18.4367 -71.8178 323° Northwest 410 472 38,000  Level Miami Center
Mon 03:20:40 AM 18.5283 -71.8911 323° Northwest 410 472 38,000  Level Miami Center
Mon 03:21:40 AM 18.6161 -71.9644 322° Northwest 410 472 38,000  Level Miami Center
Mon 03:22:41 AM 18.7078 -72.0400 322° Northwest 410 472 38,000  Level Miami Center
Mon 03:23:41 AM 18.7975 -72.1114 323° Northwest 410 472 38,000  Level Miami Center
Mon 03:24:42 AM 18.8828 -72.1786 323° Northwest 410 472 38,000  Level Miami Center
Mon 03:25:41 AM 18.9769 -72.2611 320° Northwest 410 472 38,000  Level Miami Center
Mon 03:26:40 AM 19.0642 -72.3306 323° Northwest 410 472 38,000  Level Miami Center
Mon 03:27:42 AM 19.1581 -72.4042 323° Northwest 410 472 38,000  Level Miami Center
Mon 03:28:40 AM 19.2478 -72.4803 321° Northwest 410 472 38,000  Level Miami Center
Mon 03:29:41 AM 19.3372 -72.5567 321° Northwest 410 472 38,000  Level Miami Center
Mon 03:30:40 AM 19.4289 -72.6308 323° Northwest 410 472 38,000  Level Miami Center
Mon 03:31:40 AM 19.5247 -72.7047 324° Northwest 420 483 38,000  Level Miami Center
Mon 03:32:41 AM 19.6206 -72.7833 322° Northwest 426 490 38,000  Level Miami Center
Mon 03:33:40 AM 19.7142 -72.8622 322° Northwest 426 490 38,000  Level Miami Center
Mon 03:34:42 AM 19.8058 -72.9389 322° Northwest 426 490 38,000  Level Miami Center
Mon 03:35:40 AM 19.8994 -73.0156 322° Northwest 426 490 38,000  Level Miami Center
Mon 03:36:40 AM 19.9931 -73.0925 322° Northwest 426 490 38,000  Level Miami Center
Mon 03:37:40 AM 20.0844 -73.1672 322° Northwest 426 490 38,000  Level Miami Center
Mon 03:38:42 AM 20.1803 -73.2464 322° Northwest 426 490 38,000  Level Miami Center
Mon 03:39:40 AM 20.2656 -73.3303 317° Northwest 426 490 38,000  Level Miami Center
Mon 03:40:40 AM 20.3572 -73.4142 319° Northwest 426 490 38,000  Level Miami Center
Mon 03:41:41 AM 20.4467 -73.4961 319° Northwest 421 484 38,000  Level Miami Center
Mon 03:42:41 AM 20.5294 -73.5717 319° Northwest 427 491 38,000  Level Miami Center
Mon 03:43:41 AM 20.6211 -73.6558 319° Northwest 427 491 38,000  Level Miami Center
Mon 03:44:41 AM 20.7083 -73.7381 319° Northwest 422 486 38,000  Level Miami Center
Mon 03:45:40 AM 20.7975 -73.8203 319° Northwest 422 486 38,000  Level Miami Center
Mon 03:46:42 AM 20.8869 -73.9050 318° Northwest 422 486 38,000  Level Miami Center
Mon 03:47:40 AM 20.9842 -73.9783 325° Northwest 427 491 38,000  Level Miami Center
Mon 03:48:40 AM 21.0817 -74.0519 325° Northwest 427 491 38,000  Level Miami Center
Mon 03:49:41 AM 21.1811 -74.1233 326° Northwest 427 491 38,000  Level Miami Center
Mon 03:50:40 AM 21.2803 -74.1903 328° Northwest 433 498 38,000  Level Miami Center
Mon 03:51:40 AM 21.3839 -74.2619 327° Northwest 433 498 38,000  Level Miami Center
Mon 03:52:40 AM 21.4853 -74.3314 327° Northwest 433 498 38,000  Level Miami Center
Mon 03:53:40 AM 21.5864 -74.3942 330° Northwest 433 498 38,000  Level Miami Center
Mon 03:54:41 AM 21.6919 -74.4569 331° Northwest 433 498 38,000  Level Miami Center
Mon 03:55:42 AM 21.7911 -74.5222 329° Northwest 428 493 38,000  Level Miami Center
Mon 03:56:41 AM 21.8781 -74.6125 316° Northwest 428 493 38,000  Level Miami Center
Mon 03:57:41 AM 21.9506 -74.7186 306° West 428 493 38,000  Level Miami Center
Mon 03:58:40 AM 22.0269 -74.8183 310° West 434 499 38,000  Level Miami Center
Mon 03:59:42 AM 22.1036 -74.9225 308° West 445 512 38,000  Level Miami Center
Mon 04:00:40 AM 22.1844 -75.0289 309° West 455 524 38,000  Level Miami Center
Mon 04:01:42 AM 22.2586 -75.1311 308° West 450 518 38,000  Level Miami Center
Mon 04:02:41 AM 22.3369 -75.2333 310° West 450 518 38,000  Level Miami Center
Mon 04:03:40 AM 22.4153 -75.3356 310° West 444 511 38,000  Level Miami Center
Mon 04:04:40 AM 22.4936 -75.4403 309° West 444 511 38,000  Level Miami Center
Mon 04:05:40 AM 22.5617 -75.5475 305° West 444 511 38,000  Level Miami Center
Mon 04:06:40 AM 22.6336 -75.6572 305° West 444 511 38,000  Level Miami Center
Mon 04:07:41 AM 22.7033 -75.7692 304° West 444 511 38,000  Level Miami Center
Mon 04:08:40 AM 22.7750 -75.8767 306° West 449 517 38,000  Level Miami Center
Mon 04:09:41 AM 22.8447 -75.9867 305° West 449 517 38,000  Level Miami Center
Mon 04:10:41 AM 22.9206 -76.1033 305° West 444 511 38,000  Level Miami Center
Mon 04:11:40 AM 22.9922 -76.2158 305° West 444 511 38,000  Level Miami Center
Mon 04:12:40 AM 23.0614 -76.3214 305° West 444 511 38,000  Level Miami Center
Mon 04:13:40 AM 23.1350 -76.4297 306° West 444 511 38,000  Level Miami Center
Mon 04:14:40 AM 23.2042 -76.5381 305° West 444 511 38,000  Level Miami Center
Mon 04:15:40 AM 23.2756 -76.6464 306° West 444 511 38,000  Level Miami Center
Mon 04:16:40 AM 23.3444 -76.7569 304° West 444 511 38,000  Level Miami Center
Mon 04:17:41 AM 23.4114 -76.8633 304° West 444 511 38,000  Level Miami Center
Mon 04:18:40 AM 23.4844 -76.9678 307° West 444 511 38,000  Level Miami Center
Mon 04:19:41 AM 23.5597 -77.0719 308° West 444 511 38,000  Level Miami Center
Mon 04:20:42 AM 23.6328 -77.1742 308° West 438 504 38,000  Level Miami Center
Mon 04:21:41 AM 23.7033 -77.2786 306° West 431 496 38,000  Level Miami Center
Mon 04:22:41 AM 23.7783 -77.3789 309° West 431 496 38,000  Level Miami Center
Mon 04:23:40 AM 23.8489 -77.4883 305° West 431 496 38,000  Level Miami Center
Mon 04:24:40 AM 23.9239 -77.5931 308° West 431 496 38,000  Level Miami Center
Mon 04:25:40 AM 23.9986 -77.6958 309° West 437 503 38,000  Level Miami Center
Mon 04:26:41 AM 24.0711 -77.8056 306° West 437 503 38,000  Level Miami Center
Mon 04:27:41 AM 24.1456 -77.9064 309° West 434 499 38,000  Level Miami Center
Mon 04:28:40 AM 24.2158 -78.0117 306° West 434 499 38,000  Level Miami Center
Mon 04:29:40 AM 24.2922 -78.1175 308° West 434 499 38,000  Level Miami Center
Mon 04:30:40 AM 24.3644 -78.2231 307° West 434 499 38,000  Level Miami Center
Mon 04:31:41 AM 24.4344 -78.3289 306° West 434 499 38,000 -200 Level Miami Center
Mon 04:32:40 AM 24.5128 -78.4347 309° West 434 499 37,600 -1,041 Descending Miami Center
Mon 04:33:42 AM 24.5847 -78.5453 306° West 440 506 35,900 -1,750 Descending Miami Center
Mon 04:34:40 AM 24.6589 -78.6561 306° West 450 518 34,100 -1,932 Descending Miami Center
Mon 04:35:40 AM 24.7367 -78.7672 308° West 456 525 32,100 -2,000 Descending Miami Center
Mon 04:36:43 AM 24.8169 -78.8783 309° West 456 525 30,000 -2,150 Descending Miami Center
Mon 04:37:40 AM 24.8928 -78.9847 308° West 456 525 27,800 -2,256 Descending Miami Center
Mon 04:38:40 AM 24.9706 -79.0869 310° West 446 513 25,600 -2,250 Descending Miami Center
Mon 04:39:40 AM 25.0569 -79.1803 316° Northwest 433 498 23,300 -1,983 Descending Miami Center
Mon 04:40:41 AM 25.1219 -79.2847 305° West 428 493 21,600 -2,000 Descending Miami Center
Mon 04:41:40 AM 25.1853 -79.3847 305° West 414 476 19,300 -2,303 Descending Miami Center
Mon 04:42:20 AM 25.2256 -79.4592 301° West 402 463 17,800 -2,100 Descending Miami Center
Mon 04:42:40 AM 25.2481 -79.4872 312° West 402 463 17,200 -1,935 Descending Miami Center
Mon 04:43:22 AM 25.2864 -79.5639 299° West 397 457 15,800 -1,967 Descending Miami Center
Mon 04:43:41 AM 25.3069 -79.5894 312° West 402 463 15,200 -2,066 Descending Miami Center
Mon 04:44:23 AM 25.3472 -79.6617 302° West 388 447 13,700 -1,967 Descending Miami Center
Mon 04:44:42 AM 25.3678 -79.6853 314° West 397 457 13,200 -1,600 Descending Miami Center
Mon 04:45:23 AM 25.4061 -79.7575 300° West 377 434 12,100 -1,220 Descending Miami Center
Mon 04:45:41 AM 25.4286 -79.7811 317° Northwest 391 450 12,000 -102 Descending Miami Center
Mon 04:46:22 AM 25.4650 -79.8464 302° West 350 403 12,000  Level Miami Center
Mon 04:46:40 AM 25.4853 -79.8675 317° Northwest 369 425 12,000  Level Miami Center
Mon 04:47:22 AM 25.5217 -79.9328 302° West 353 406 12,000  Level Miami Center
Mon 04:47:40 AM 25.5419 -79.9542 316° Northwest 358 412 12,000 -484 Level Miami Center
Mon 04:48:24 AM 25.5764 -80.0147 302° West 314 361 11,500 -900 Descending Miami Center
Mon 04:48:40 AM 25.5967 -80.0339 320° Northwest 347 399 11,100 -1,600 Descending Miami Center
Mon 04:49:24 AM 25.6267 -80.0944 299° West 311 358 9,900 -1,645 Descending Miami Center
Mon 04:49:42 AM 25.6472 -80.1111 324° Northwest 329 379 9,400 -2,100 Descending Miami Center
Mon 04:50:24 AM 25.6708 -80.1808 291° West 299 344 7,800 -2,172 Descending Miami Center
Mon 04:50:40 AM 25.6808 -80.1975 304° West 309 356 7,300 -1,970 Descending Miami Center
Mon 04:51:31 AM 25.6958 -80.2786 282° West 296 341 5,600 -1,869 Descending Miami Center
Mon 04:51:41 AM 25.7017 -80.2856 313° West 302 348 5,400 -1,800 Descending Miami Center
Mon 04:52:31 AM 25.7042 -80.3664 272° West 291 335 3,800 -1,339 Descending Miami Center
Mon 04:53:33 AM 25.7083 -80.4494 273° West 271 312 2,900 -984 Descending Miami Center
Mon 04:54:33 AM 25.7664 -80.4628 348° North 220 253 1,800 -645 Descending Miami Center
Mon 04:55:34 AM 25.7947 -80.4197 54° Northeast 166 191 1,600 -323 Descending Miami Center
Mon 04:56:43 AM 25.7939 -80.3644 91° East 150 173 1,100 -554 Descending Miami Center
Mon 04:57:44 AM 25.7992 -80.3231 82° East 123 142 400 -689 Descending Miami Center

Login

Don't have an account? Register now (free) for customized features, flight alerts, and more!